Time;durP1;ratioP1;P1;durP2;ratioP2;P2;SDS_P1;SDS_P2;PMS_P1;PMS_P2;Temp;Humidity;BMP_temperature;BMP_pressure;BME280_temperature;BME280_humidity;BME280_pressure;Samples;Min_cycle;Max_cycle;Signal;HPM_P1;HPM_P2
2023/03/05 00:01:23;;;;;;;7.88;1.83;;;;;;;;;;5052903;28;20090;-69
2023/03/05 00:03:51;;;;;;;6.93;1.70;;;;;;;;;;5067394;28;20044;-69
2023/03/05 00:06:17;;;;;;;5.47;1.50;;;;;;;;;;5067855;28;20547;-69
2023/03/05 00:08:43;;;;;;;9.95;2.25;;;;;;;;;;5067278;28;20556;-69
2023/03/05 00:11:10;;;;;;;9.60;1.67;;;;;;;;;;5067828;28;20369;-69
2023/03/05 00:13:37;;;;;;;6.93;1.52;;;;;;;;;;5067964;28;20060;-69
2023/03/05 00:16:07;;;;;;;6.88;1.50;;;;;;;;;;5067624;28;20048;-69
2023/03/05 00:18:33;;;;;;;7.72;1.70;;;;;;;;;;5061987;28;20036;-69
2023/03/05 00:20:59;;;;;;;7.20;1.63;;;;;;;;;;5054565;28;20148;-69
2023/03/05 00:23:26;;;;;;;6.75;1.60;;;;;;;;;;5064301;28;20099;-69
2023/03/05 00:25:52;;;;;;;6.00;1.58;;;;;;;;;;5058628;28;20045;-69
2023/03/05 00:28:18;;;;;;;7.25;1.40;;;;;;;;;;5055814;28;20044;-69
2023/03/05 00:30:44;;;;;;;7.20;1.50;;;;;;;;;;5071701;28;20044;-69
2023/03/05 00:33:11;;;;;;;8.48;1.40;;;;;;;;;;5072479;28;20448;-69
2023/03/05 00:35:41;;;;;;;6.72;1.30;;;;;;;;;;5056239;28;20116;-69
2023/03/05 00:38:07;;;;;;;5.05;1.42;;;;;;;;;;5051463;28;20579;-69
2023/03/05 00:40:37;;;;;;;8.20;1.42;;;;;;;;;;5051866;28;20656;-69
2023/03/05 00:43:03;;;;;;;8.35;1.95;;;;;;;;;;5035317;28;20033;-69
2023/03/05 00:45:29;;;;;;;7.38;1.50;;;;;;;;;;5034784;28;20079;-69
2023/03/05 00:47:55;;;;;;;5.72;1.65;;;;;;;;;;5063630;28;20048;-69
2023/03/05 00:50:21;;;;;;;5.10;1.33;;;;;;;;;;5071888;28;20146;-69
2023/03/05 00:52:47;;;;;;;8.20;1.25;;;;;;;;;;5055405;28;20052;-69
2023/03/05 00:55:13;;;;;;;8.00;1.10;;;;;;;;;;5052201;28;20468;-69
2023/03/05 00:57:39;;;;;;;4.70;1.38;;;;;;;;;;5051801;28;20079;-69
2023/03/05 01:00:06;;;;;;;4.45;1.17;;;;;;;;;;5050992;28;20053;-69
2023/03/05 01:02:32;;;;;;;5.32;1.30;;;;;;;;;;5051643;28;20048;-69
2023/03/05 01:04:58;;;;;;;8.43;1.85;;;;;;;;;;5051790;28;20041;-69
2023/03/05 01:07:24;;;;;;;6.82;1.40;;;;;;;;;;5050940;28;20037;-69
2023/03/05 01:09:50;;;;;;;8.73;1.42;;;;;;;;;;5051631;28;20080;-69
2023/03/05 01:12:16;;;;;;;4.38;1.40;;;;;;;;;;5051785;28;20135;-69
2023/03/05 01:14:42;;;;;;;4.80;1.70;;;;;;;;;;5050843;28;20072;-69
2023/03/05 01:17:08;;;;;;;7.10;1.40;;;;;;;;;;5051608;28;20049;-69
2023/03/05 01:19:34;;;;;;;8.07;1.70;;;;;;;;;;5051642;28;20128;-69
2023/03/05 01:22:00;;;;;;;6.03;1.30;;;;;;;;;;5050843;28;20084;-69
2023/03/05 01:24:26;;;;;;;7.20;1.40;;;;;;;;;;5067091;28;20044;-69
2023/03/05 01:26:52;;;;;;;4.25;1.00;;;;;;;;;;5054362;28;20060;-69
2023/03/05 01:29:18;;;;;;;7.43;1.52;;;;;;;;;;5049995;28;20049;-69
2023/03/05 01:31:45;;;;;;;11.70;1.63;;;;;;;;;;5050907;28;20480;-69
2023/03/05 01:34:11;;;;;;;6.07;1.77;;;;;;;;;;5052609;28;20041;-69
2023/03/05 01:36:37;;;;;;;8.55;1.65;;;;;;;;;;5051223;28;20052;-69
2023/03/05 01:39:03;;;;;;;10.82;1.42;;;;;;;;;;5050334;28;20048;-69
2023/03/05 01:41:29;;;;;;;3.72;1.30;;;;;;;;;;5034450;28;20547;-69
2023/03/05 01:43:55;;;;;;;9.13;1.40;;;;;;;;;;5051122;28;20040;-69
2023/03/05 01:46:37;;;;;;;6.50;1.55;;;;;;;;;;5050234;28;20072;-69
2023/03/05 01:49:03;;;;;;;3.95;1.25;;;;;;;;;;5050962;28;20084;-69
2023/03/05 01:51:30;;;;;;;7.88;1.73;;;;;;;;;;5051082;28;20068;-69
2023/03/05 01:53:57;;;;;;;6.43;2.28;;;;;;;;;;5050586;28;20361;-69
2023/03/05 01:56:24;;;;;;;8.70;2.00;;;;;;;;;;5050799;28;20041;-69
2023/03/05 01:58:51;;;;;;;7.78;1.95;;;;;;;;;;5034238;28;20526;-69
2023/03/05 02:01:17;;;;;;;7.45;1.85;;;;;;;;;;5049959;28;20049;-69
2023/03/05 02:03:44;;;;;;;8.60;1.90;;;;;;;;;;5050628;28;20060;-69
2023/03/05 02:06:10;;;;;;;5.25;1.60;;;;;;;;;;5050560;28;20041;-69
2023/03/05 02:08:36;;;;;;;5.40;1.58;;;;;;;;;;5033020;28;20033;-69
2023/03/05 02:11:02;;;;;;;6.55;1.60;;;;;;;;;;5050573;28;20045;-69
2023/03/05 02:13:37;;;;;;;4.90;1.30;;;;;;;;;;5050566;28;20044;-69
2023/03/05 02:16:03;;;;;;;7.43;1.73;;;;;;;;;;5050004;28;20049;-69
2023/03/05 02:18:29;;;;;;;7.63;1.45;;;;;;;;;;5050141;28;20041;-69
2023/03/05 02:20:55;;;;;;;3.67;1.60;;;;;;;;;;5050177;28;20640;-69
2023/03/05 02:23:22;;;;;;;7.45;1.63;;;;;;;;;;5039827;28;20040;-69
2023/03/05 02:25:48;;;;;;;4.18;1.23;;;;;;;;;;5070019;28;20090;-69
2023/03/05 02:28:32;;;;;;;7.55;1.75;;;;;;;;;;5069976;28;20041;-69
2023/03/05 02:30:59;;;;;;;4.70;1.30;;;;;;;;;;5069720;28;20036;-69
2023/03/05 02:33:25;;;;;;;6.47;1.45;;;;;;;;;;5053627;28;20468;-69
2023/03/05 02:35:51;;;;;;;4.95;1.60;;;;;;;;;;5070083;28;20036;-69
2023/03/05 02:38:18;;;;;;;7.60;1.70;;;;;;;;;;5069242;28;20047;-69
2023/03/05 02:40:44;;;;;;;5.60;1.83;;;;;;;;;;5069711;28;20045;-69
2023/03/05 02:43:11;;;;;;;7.43;1.50;;;;;;;;;;5069744;28;20040;-69
2023/03/05 02:45:37;;;;;;;5.95;1.40;;;;;;;;;;5069095;28;20458;-69
2023/03/05 02:48:03;;;;;;;4.90;1.40;;;;;;;;;;5056854;28;20059;-69
2023/03/05 02:50:30;;;;;;;10.07;1.75;;;;;;;;;;5049823;28;20046;-69
2023/03/05 02:52:57;;;;;;;5.97;1.58;;;;;;;;;;5049050;28;20045;-69
2023/03/05 02:55:23;;;;;;;5.22;1.50;;;;;;;;;;5049764;28;20037;-69
2023/03/05 02:57:49;;;;;;;6.25;1.55;;;;;;;;;;5049611;28;20045;-69
2023/03/05 03:00:16;;;;;;;6.35;2.40;;;;;;;;;;5032508;28;20056;-69
2023/03/05 03:02:42;;;;;;;11.05;2.03;;;;;;;;;;5049554;28;20088;-69
2023/03/05 03:05:08;;;;;;;7.45;1.60;;;;;;;;;;5049563;28;20045;-69
2023/03/05 03:07:35;;;;;;;8.38;1.83;;;;;;;;;;5048754;28;20439;-69
2023/03/05 03:10:01;;;;;;;6.57;2.15;;;;;;;;;;5049637;28;20135;-69
2023/03/05 03:12:27;;;;;;;8.88;1.63;;;;;;;;;;5049368;28;20044;-69
2023/03/05 03:14:54;;;;;;;8.60;1.73;;;;;;;;;;5049103;28;20053;-69
2023/03/05 03:17:20;;;;;;;4.97;1.60;;;;;;;;;;5049538;28;20487;-69
2023/03/05 03:19:46;;;;;;;10.43;1.50;;;;;;;;;;5049214;28;20040;-69
2023/03/05 03:22:13;;;;;;;3.33;1.90;;;;;;;;;;5048573;28;20064;-69
2023/03/05 03:24:40;;;;;;;7.20;2.17;;;;;;;;;;5050431;28;20519;-69
2023/03/05 03:27:07;;;;;;;5.85;1.55;;;;;;;;;;5050725;28;20445;-69
2023/03/05 03:29:33;;;;;;;6.88;1.77;;;;;;;;;;5032238;28;20048;-69
2023/03/05 03:31:59;;;;;;;7.35;1.83;;;;;;;;;;5050862;28;20056;-69
2023/03/05 03:34:25;;;;;;;4.30;1.48;;;;;;;;;;5049655;28;20049;-69
2023/03/05 03:36:54;;;;;;;4.10;1.50;;;;;;;;;;5050040;28;20076;-69
2023/03/05 03:39:20;;;;;;;5.65;1.40;;;;;;;;;;5049275;28;20051;-69
2023/03/05 03:41:50;;;;;;;3.47;1.08;;;;;;;;;;5049434;28;20052;-69
2023/03/05 03:44:17;;;;;;;7.90;1.10;;;;;;;;;;5049051;28;20041;-69
2023/03/05 03:46:45;;;;;;;7.85;1.10;;;;;;;;;;5049090;28;20373;-69
2023/03/05 03:49:14;;;;;;;6.97;1.48;;;;;;;;;;5048986;28;20048;-69
2023/03/05 03:51:40;;;;;;;5.25;1.27;;;;;;;;;;5049222;28;20564;-69
2023/03/05 03:54:06;;;;;;;4.25;1.13;;;;;;;;;;5053163;28;20049;-69
2023/03/05 03:56:32;;;;;;;4.20;1.13;;;;;;;;;;5053073;28;20693;-69
2023/03/05 03:58:58;;;;;;;8.57;1.40;;;;;;;;;;5052212;28;20499;-69
2023/03/05 04:01:24;;;;;;;5.93;1.17;;;;;;;;;;5052936;28;20059;-69
2023/03/05 04:03:51;;;;;;;5.82;1.15;;;;;;;;;;5036541;28;20472;-69
2023/03/05 04:06:17;;;;;;;3.90;1.15;;;;;;;;;;5052351;28;20045;-69
2023/03/05 04:08:43;;;;;;;2.92;0.85;;;;;;;;;;5052800;28;20037;-69
2023/03/05 04:11:09;;;;;;;5.03;1.00;;;;;;;;;;5053006;28;20048;-69
2023/03/05 04:13:35;;;;;;;4.07;0.80;;;;;;;;;;5052382;28;20040;-69
2023/03/05 04:16:01;;;;;;;4.40;1.38;;;;;;;;;;5052858;28;20459;-69
2023/03/05 04:18:27;;;;;;;2.17;0.77;;;;;;;;;;5052618;28;20128;-69
2023/03/05 04:20:53;;;;;;;2.25;0.70;;;;;;;;;;5051829;28;20033;-69
2023/03/05 04:23:19;;;;;;;4.72;0.93;;;;;;;;;;5055545;28;20055;-69
2023/03/05 04:25:45;;;;;;;1.77;0.70;;;;;;;;;;5060114;28;20072;-69
2023/03/05 04:28:11;;;;;;;5.65;1.00;;;;;;;;;;5071885;28;20045;-69
2023/03/05 04:30:37;;;;;;;2.97;1.00;;;;;;;;;;5072471;28;20044;-69
2023/03/05 04:33:04;;;;;;;4.13;0.70;;;;;;;;;;5072389;28;20041;-69
2023/03/05 04:35:30;;;;;;;2.70;0.80;;;;;;;;;;5071504;28;20068;-69
2023/03/05 04:37:56;;;;;;;1.88;0.73;;;;;;;;;;5072612;28;20076;-69
2023/03/05 04:40:22;;;;;;;3.90;1.10;;;;;;;;;;5071868;28;20063;-69
2023/03/05 04:42:48;;;;;;;6.18;1.00;;;;;;;;;;5071599;28;20037;-69
2023/03/05 04:45:16;;;;;;;1.90;0.77;;;;;;;;;;5072146;28;20486;-69
2023/03/05 04:47:42;;;;;;;4.32;1.00;;;;;;;;;;5062542;28;20041;-69
2023/03/05 04:50:10;;;;;;;2.55;0.90;;;;;;;;;;5051318;28;20036;-69
2023/03/05 04:52:40;;;;;;;1.13;0.90;;;;;;;;;;5052321;28;20033;-69
2023/03/05 04:55:06;;;;;;;2.58;0.90;;;;;;;;;;5051850;28;20076;-69
2023/03/05 04:57:32;;;;;;;2.45;0.90;;;;;;;;;;5051518;28;20045;-69
2023/03/05 04:59:59;;;;;;;8.25;1.05;;;;;;;;;;5051950;28;20056;-69
2023/03/05 05:02:25;;;;;;;3.28;0.75;;;;;;;;;;5051351;28;20068;-69
2023/03/05 05:04:54;;;;;;;2.35;0.80;;;;;;;;;;5051021;28;20044;-69
2023/03/05 05:07:20;;;;;;;6.07;1.10;;;;;;;;;;5051632;28;20040;-69
2023/03/05 05:09:46;;;;;;;5.07;0.88;;;;;;;;;;5051489;28;20044;-69
2023/03/05 05:12:12;;;;;;;2.88;0.80;;;;;;;;;;5050905;28;20037;-69
2023/03/05 05:14:38;;;;;;;4.43;0.90;;;;;;;;;;5051588;28;20489;-69
2023/03/05 05:17:05;;;;;;;1.45;1.15;;;;;;;;;;5051681;28;20526;-69
2023/03/05 05:19:34;;;;;;;3.72;0.98;;;;;;;;;;5050773;28;20053;-69
2023/03/05 05:22:01;;;;;;;2.90;0.73;;;;;;;;;;5051189;28;20061;-69
2023/03/05 05:24:27;;;;;;;3.70;1.05;;;;;;;;;;5067121;28;20047;-69
2023/03/05 05:26:56;;;;;;;3.75;1.00;;;;;;;;;;5053829;28;20387;-69
2023/03/05 05:29:22;;;;;;;4.03;0.80;;;;;;;;;;5051169;28;20127;-69
2023/03/05 05:31:49;;;;;;;6.80;1.20;;;;;;;;;;5051479;28;20455;-69
2023/03/05 05:34:15;;;;;;;4.40;1.10;;;;;;;;;;5050728;28;20589;-69
2023/03/05 05:36:41;;;;;;;3.17;0.80;;;;;;;;;;5051534;28;20041;-69
2023/03/05 05:39:07;;;;;;;4.40;0.70;;;;;;;;;;5051387;28;20656;-69
2023/03/05 05:41:33;;;;;;;4.97;0.85;;;;;;;;;;5033930;28;20188;-69
2023/03/05 05:43:59;;;;;;;3.17;0.65;;;;;;;;;;5051020;28;20124;-69
2023/03/05 05:46:25;;;;;;;2.58;0.70;;;;;;;;;;5051300;28;20480;-69
2023/03/05 05:48:51;;;;;;;3.00;0.80;;;;;;;;;;5050383;28;20037;-69
2023/03/05 05:51:19;;;;;;;3.55;0.60;;;;;;;;;;5034400;28;20409;-69
2023/03/05 05:53:45;;;;;;;3.08;0.90;;;;;;;;;;5050951;28;20058;-69
2023/03/05 05:56:12;;;;;;;3.50;0.90;;;;;;;;;;5050267;28;20051;-69
2023/03/05 05:58:38;;;;;;;5.82;0.82;;;;;;;;;;5050766;28;20044;-69
2023/03/05 06:01:20;;;;;;;2.53;0.88;;;;;;;;;;5051741;28;20033;-69
2023/03/05 06:03:46;;;;;;;3.08;0.75;;;;;;;;;;5050269;28;20037;-69
2023/03/05 06:06:14;;;;;;;4.38;0.98;;;;;;;;;;5050588;28;20037;-69
2023/03/05 06:08:40;;;;;;;4.10;1.10;;;;;;;;;;5050705;28;20044;-69
2023/03/05 06:11:06;;;;;;;4.05;1.00;;;;;;;;;;5050018;28;20095;-69
2023/03/05 06:13:32;;;;;;;4.57;1.15;;;;;;;;;;5050276;28;20448;-69
2023/03/05 06:15:59;;;;;;;5.68;1.55;;;;;;;;;;5049627;28;20431;-69
2023/03/05 06:18:25;;;;;;;6.22;1.00;;;;;;;;;;5049648;28;20080;-69
2023/03/05 06:20:59;;;;;;;4.10;1.02;;;;;;;;;;5050221;28;20037;-69
2023/03/05 06:23:25;;;;;;;2.53;0.90;;;;;;;;;;5054060;28;20056;-69
2023/03/05 06:25:52;;;;;;;2.05;0.88;;;;;;;;;;5057784;28;20081;-69
2023/03/05 06:28:19;;;;;;;5.50;1.00;;;;;;;;;;5071261;28;20032;-69
2023/03/05 06:30:45;;;;;;;7.80;1.00;;;;;;;;;;5070200;28;20074;-69
2023/03/05 06:33:11;;;;;;;5.97;1.00;;;;;;;;;;5069160;28;20098;-69
2023/03/05 06:35:40;;;;;;;3.35;1.38;;;;;;;;;;5070065;28;20044;-69
2023/03/05 06:38:07;;;;;;;7.63;1.10;;;;;;;;;;5070079;28;20131;-69
2023/03/05 06:40:33;;;;;;;6.15;1.10;;;;;;;;;;5069226;28;20127;-69
2023/03/05 06:42:59;;;;;;;4.30;1.17;;;;;;;;;;5069817;28;20040;-69
2023/03/05 06:45:25;;;;;;;3.50;1.77;;;;;;;;;;5069946;28;20044;-69
2023/03/05 06:47:51;;;;;;;7.25;1.05;;;;;;;;;;5058115;28;20071;-69
2023/03/05 06:50:18;;;;;;;5.63;1.25;;;;;;;;;;5049676;28;20462;-69
2023/03/05 06:52:44;;;;;;;5.05;1.15;;;;;;;;;;5033361;28;20056;-69
2023/03/05 06:55:10;;;;;;;3.70;1.00;;;;;;;;;;5049298;28;20102;-69
2023/03/05 06:57:36;;;;;;;5.85;1.02;;;;;;;;;;5049953;28;20048;-69
2023/03/05 07:00:08;;;;;;;5.20;1.27;;;;;;;;;;5049744;28;20127;-69
2023/03/05 07:02:36;;;;;;;8.07;1.30;;;;;;;;;;5048778;28;20087;-69
2023/03/05 07:05:02;;;;;;;6.32;1.45;;;;;;;;;;5049750;28;20083;-69
2023/03/05 07:07:29;;;;;;;5.78;1.05;;;;;;;;;;5049777;28;20210;-69
2023/03/05 07:09:54;;;;;;;5.63;1.00;;;;;;;;;;5032353;28;20037;-69
2023/03/05 07:12:21;;;;;;;4.70;1.10;;;;;;;;;;5049601;28;20106;-69
2023/03/05 07:14:47;;;;;;;4.90;1.00;;;;;;;;;;5049686;28;20110;-69
2023/03/05 07:17:14;;;;;;;5.80;1.00;;;;;;;;;;5048946;28;20128;-69
2023/03/05 07:19:40;;;;;;;6.10;1.17;;;;;;;;;;5049539;28;20064;-69
2023/03/05 07:22:06;;;;;;;6.38;1.38;;;;;;;;;;5049290;28;20377;-69
2023/03/05 07:24:32;;;;;;;5.38;1.77;;;;;;;;;;5065700;28;20450;-69
2023/03/05 07:26:58;;;;;;;4.93;1.27;;;;;;;;;;5051917;28;20482;-69
2023/03/05 07:29:26;;;;;;;4.10;1.10;;;;;;;;;;5053442;28;20040;-69
2023/03/05 07:31:52;;;;;;;3.90;1.55;;;;;;;;;;5053318;28;20041;-69
2023/03/05 07:34:18;;;;;;;5.10;0.98;;;;;;;;;;5053198;28;20052;-69
2023/03/05 07:36:45;;;;;;;5.50;1.40;;;;;;;;;;5055118;28;20448;-69
2023/03/05 07:39:12;;;;;;;5.65;1.20;;;;;;;;;;5053318;28;20080;-69
2023/03/05 07:41:38;;;;;;;6.22;1.27;;;;;;;;;;5052833;28;20453;-69
2023/03/05 07:44:04;;;;;;;4.55;1.30;;;;;;;;;;5053690;28;20043;-69
2023/03/05 07:46:32;;;;;;;8.20;1.30;;;;;;;;;;5053617;28;20395;-69
2023/03/05 07:48:58;;;;;;;5.47;1.42;;;;;;;;;;5052729;28;20037;-69
2023/03/05 07:51:25;;;;;;;5.20;1.20;;;;;;;;;;5052882;28;20135;-69
2023/03/05 07:53:52;;;;;;;5.50;1.20;;;;;;;;;;5053350;28;20044;-69
2023/03/05 07:56:34;;;;;;;7.57;1.17;;;;;;;;;;5036048;28;20055;-69
2023/03/05 07:59:04;;;;;;;7.35;1.42;;;;;;;;;;5053145;28;20055;-69
2023/03/05 08:01:31;;;;;;;8.35;1.38;;;;;;;;;;5052772;28;20040;-69
2023/03/05 08:03:57;;;;;;;3.17;1.25;;;;;;;;;;5052304;28;20029;-69
2023/03/05 08:06:23;;;;;;;6.20;1.33;;;;;;;;;;5053151;28;20041;-69
2023/03/05 08:08:49;;;;;;;5.57;1.30;;;;;;;;;;5053053;28;20470;-69
2023/03/05 08:11:15;;;;;;;5.40;1.00;;;;;;;;;;5052252;28;20044;-69
2023/03/05 08:13:42;;;;;;;5.93;1.60;;;;;;;;;;5052661;28;20037;-69
2023/03/05 08:16:12;;;;;;;12.20;1.50;;;;;;;;;;5036169;28;20037;-69
2023/03/05 08:18:38;;;;;;;4.65;1.13;;;;;;;;;;5051689;28;20024;-69
2023/03/05 08:21:05;;;;;;;7.57;1.65;;;;;;;;;;5052194;28;20094;-69
2023/03/05 08:23:33;;;;;;;4.55;1.10;;;;;;;;;;5060307;28;20041;-69
2023/03/05 08:25:59;;;;;;;10.30;1.55;;;;;;;;;;5062482;28;20087;-69
2023/03/05 08:28:25;;;;;;;3.92;1.65;;;;;;;;;;5052474;28;20452;-69
2023/03/05 08:30:51;;;;;;;3.47;1.08;;;;;;;;;;5052550;28;20530;-69
2023/03/05 08:33:17;;;;;;;6.60;1.58;;;;;;;;;;5051729;28;20051;-69
2023/03/05 08:35:43;;;;;;;5.90;1.10;;;;;;;;;;5035842;28;20137;-69
2023/03/05 08:38:09;;;;;;;5.28;1.13;;;;;;;;;;5051361;28;20057;-69
2023/03/05 08:40:35;;;;;;;4.30;0.90;;;;;;;;;;5051769;28;20495;-69
2023/03/05 08:43:03;;;;;;;7.03;1.00;;;;;;;;;;5052058;28;20083;-69
2023/03/05 08:45:29;;;;;;;6.47;1.23;;;;;;;;;;5052313;28;20787;-69
2023/03/05 08:47:56;;;;;;;6.00;1.15;;;;;;;;;;5051570;28;20045;-69
2023/03/05 08:50:22;;;;;;;6.50;0.98;;;;;;;;;;5052151;28;20041;-69
2023/03/05 08:52:48;;;;;;;8.73;1.40;;;;;;;;;;5052108;28;20037;-69
2023/03/05 08:55:15;;;;;;;5.28;0.88;;;;;;;;;;5034705;28;20048;-69
2023/03/05 08:57:41;;;;;;;7.00;1.20;;;;;;;;;;5052059;28;20048;-69
2023/03/05 09:00:09;;;;;;;5.65;1.40;;;;;;;;;;5051737;28;20059;-69
2023/03/05 09:02:35;;;;;;;8.70;1.30;;;;;;;;;;5034721;28;20120;-69
2023/03/05 09:05:01;;;;;;;8.65;1.45;;;;;;;;;;5051845;28;20049;-69
2023/03/05 09:07:27;;;;;;;7.53;0.98;;;;;;;;;;5051693;28;20492;-69
2023/03/05 09:09:53;;;;;;;13.70;1.70;;;;;;;;;;5051260;28;20076;-69
2023/03/05 09:12:20;;;;;;;10.60;1.30;;;;;;;;;;5051902;28;20048;-69
2023/03/05 09:14:46;;;;;;;6.43;1.80;;;;;;;;;;5051430;28;20052;-69
2023/03/05 09:17:12;;;;;;;6.13;1.50;;;;;;;;;;5034496;28;20094;-69
2023/03/05 09:19:38;;;;;;;8.50;1.17;;;;;;;;;;5051293;28;20041;-69
2023/03/05 09:22:04;;;;;;;5.40;0.98;;;;;;;;;;5034563;28;20061;-69
2023/03/05 09:24:30;;;;;;;8.60;1.27;;;;;;;;;;5063585;28;20076;-69
2023/03/05 09:26:59;;;;;;;5.00;0.88;;;;;;;;;;5068485;28;20045;-69
2023/03/05 09:29:26;;;;;;;7.07;1.63;;;;;;;;;;5071196;28;20094;-69
2023/03/05 09:31:52;;;;;;;4.35;1.20;;;;;;;;;;5070637;28;20048;-69
2023/03/05 09:34:18;;;;;;;7.90;0.90;;;;;;;;;;5071333;28;20072;-69
2023/03/05 09:36:44;;;;;;;7.07;1.10;;;;;;;;;;5071352;28;20052;-69
2023/03/05 09:39:10;;;;;;;6.20;1.10;;;;;;;;;;5071711;28;20036;-69
2023/03/05 09:41:55;;;;;;;7.43;1.23;;;;;;;;;;5070931;28;20044;-69
2023/03/05 09:44:40;;;;;;;5.22;1.10;;;;;;;;;;5071202;28;20047;-69
2023/03/05 09:47:06;;;;;;;8.10;1.20;;;;;;;;;;5065913;28;20041;-69
2023/03/05 09:49:46;;;;;;;6.88;0.88;;;;;;;;;;5049955;28;20041;-69
2023/03/05 09:52:26;;;;;;;7.53;0.90;;;;;;;;;;5050877;28;20041;-69
2023/03/05 09:54:56;;;;;;;6.55;0.88;;;;;;;;;;5050049;28;20388;-69
2023/03/05 09:57:25;;;;;;;12.38;1.27;;;;;;;;;;5050679;28;20419;-69
2023/03/05 09:59:54;;;;;;;7.28;1.23;;;;;;;;;;5050429;28;20056;-69
2023/03/05 10:02:25;;;;;;;4.78;0.80;;;;;;;;;;5033725;28;20519;-69
2023/03/05 10:04:51;;;;;;;7.50;1.23;;;;;;;;;;5050874;28;20773;-69
2023/03/05 10:07:31;;;;;;;16.50;1.63;;;;;;;;;;5050551;28;20414;-69
2023/03/05 10:10:01;;;;;;;5.13;0.80;;;;;;;;;;5050287;28;20043;-69
2023/03/05 10:12:31;;;;;;;4.22;0.90;;;;;;;;;;5050338;28;20045;-69
2023/03/05 10:14:59;;;;;;;6.65;1.10;;;;;;;;;;5049978;28;20041;-69
2023/03/05 10:17:28;;;;;;;6.38;1.20;;;;;;;;;;5033713;28;20042;-69
2023/03/05 10:20:15;;;;;;;9.77;1.17;;;;;;;;;;5050065;28;20072;-69
2023/03/05 10:23:01;;;;;;;6.90;0.85;;;;;;;;;;5050315;28;20454;-69
2023/03/05 10:25:36;;;;;;;6.00;1.25;;;;;;;;;;5065317;28;20454;-69
2023/03/05 10:28:23;;;;;;;5.45;0.80;;;;;;;;;;5050234;28;20044;-69
2023/03/05 10:30:53;;;;;;;4.70;0.93;;;;;;;;;;5049310;28;20045;-69
2023/03/05 10:33:25;;;;;;;8.43;0.82;;;;;;;;;;5049900;28;20057;-69
2023/03/05 10:36:00;;;;;;;3.78;0.85;;;;;;;;;;5049948;28;20051;-69
2023/03/05 10:38:53;;;;;;;7.22;0.90;;;;;;;;;;5050639;28;20630;-69
2023/03/05 10:41:37;;;;;;;5.13;0.85;;;;;;;;;;5049557;28;20052;-69
2023/03/05 10:44:09;;;;;;;6.05;0.90;;;;;;;;;;5050251;28;20044;-69
2023/03/05 10:46:36;;;;;;;9.48;1.20;;;;;;;;;;5049285;28;20036;-69
2023/03/05 10:49:22;;;;;;;8.05;1.20;;;;;;;;;;5049585;28;20048;-69
2023/03/05 10:51:55;;;;;;;5.63;0.82;;;;;;;;;;5049518;28;20087;-69
2023/03/05 10:54:28;;;;;;;9.07;0.95;;;;;;;;;;5049904;28;20049;-69
2023/03/05 10:57:16;;;;;;;8.82;0.93;;;;;;;;;;5049662;28;20045;-69
2023/03/05 10:59:52;;;;;;;3.88;0.68;;;;;;;;;;5048695;28;20369;-69
2023/03/05 11:02:18;;;;;;;5.63;0.93;;;;;;;;;;5049454;28;20106;-69
2023/03/05 11:04:48;;;;;;;5.22;0.70;;;;;;;;;;5049503;28;20462;-69
2023/03/05 11:07:14;;;;;;;6.32;1.05;;;;;;;;;;5048940;28;20037;-69
2023/03/05 11:09:41;;;;;;;3.65;0.63;;;;;;;;;;5049600;28;20407;-69
2023/03/05 11:12:10;;;;;;;4.50;0.88;;;;;;;;;;5049735;28;20052;-69
2023/03/05 11:14:37;;;;;;;3.90;0.60;;;;;;;;;;5049001;28;20052;-69
2023/03/05 11:17:22;;;;;;;1.73;0.50;;;;;;;;;;5049675;28;20124;-69
2023/03/05 11:19:48;;;;;;;4.35;0.70;;;;;;;;;;5049387;28;20044;-69
2023/03/05 11:22:15;;;;;;;3.13;0.55;;;;;;;;;;5048776;28;20076;-69
2023/03/05 11:24:45;;;;;;;6.68;0.77;;;;;;;;;;5064064;28;20079;-69
2023/03/05 11:27:22;;;;;;;3.90;0.50;;;;;;;;;;5068591;28;20051;-69
2023/03/05 11:29:49;;;;;;;4.82;0.80;;;;;;;;;;5068483;28;20123;-69
2023/03/05 11:32:25;;;;;;;3.67;0.75;;;;;;;;;;5069705;28;20055;-69
2023/03/05 11:34:52;;;;;;;7.45;0.80;;;;;;;;;;5069472;28;20044;-69
2023/03/05 11:37:29;;;;;;;6.05;0.80;;;;;;;;;;5068915;28;20087;-69
2023/03/05 11:40:13;;;;;;;5.97;0.70;;;;;;;;;;5052599;28;20044;-69
2023/03/05 11:42:40;;;;;;;4.20;0.80;;;;;;;;;;5069376;28;20853;-69
2023/03/05 11:45:13;;;;;;;2.40;0.80;;;;;;;;;;5068724;28;20036;-69
2023/03/05 11:47:44;;;;;;;2.38;0.63;;;;;;;;;;5060033;28;20037;-69
2023/03/05 11:50:19;;;;;;;5.15;1.02;;;;;;;;;;5050618;28;20037;-69
2023/03/05 11:52:47;;;;;;;4.72;0.82;;;;;;;;;;5050088;28;20072;-69
2023/03/05 11:55:16;;;;;;;4.97;1.15;;;;;;;;;;5049181;28;20051;-69
2023/03/05 11:58:00;;;;;;;3.92;0.88;;;;;;;;;;5048837;28;20087;-69
2023/03/05 12:00:29;;;;;;;2.42;0.80;;;;;;;;;;5048439;28;20052;-69
2023/03/05 12:02:56;;;;;;;5.00;1.30;;;;;;;;;;5048949;28;20059;-69
2023/03/05 12:05:22;;;;;;;3.67;0.80;;;;;;;;;;5048988;28;20080;-69
2023/03/05 12:07:51;;;;;;;4.22;0.95;;;;;;;;;;5048329;28;20041;-69
2023/03/05 12:10:19;;;;;;;2.58;0.80;;;;;;;;;;5048844;28;20037;-69
2023/03/05 12:12:51;;;;;;;4.57;0.95;;;;;;;;;;5049351;28;20451;-69
2023/03/05 12:15:17;;;;;;;3.75;0.80;;;;;;;;;;5053319;28;20033;-69
2023/03/05 12:18:04;;;;;;;3.80;0.98;;;;;;;;;;5052608;28;20076;-69
2023/03/05 12:20:42;;;;;;;3.08;1.10;;;;;;;;;;5052810;28;20066;-69
2023/03/05 12:23:16;;;;;;;4.60;0.77;;;;;;;;;;5057236;28;20048;-69
2023/03/05 12:25:47;;;;;;;3.75;0.80;;;;;;;;;;5065822;28;20029;-69
2023/03/05 12:28:15;;;;;;;7.30;0.80;;;;;;;;;;5034892;28;20089;-69
2023/03/05 12:30:41;;;;;;;6.28;1.10;;;;;;;;;;5052467;28;20548;-69
2023/03/05 12:33:40;;;;;;;6.72;2.03;;;;;;;;;;5052627;28;20052;-69
2023/03/05 12:36:21;;;;;;;3.97;0.82;;;;;;;;;;5050955;28;20136;-69
2023/03/05 12:38:50;;;;;;;7.47;2.00;;;;;;;;;;5052381;28;20480;-69
2023/03/05 12:41:22;;;;;;;5.95;1.20;;;;;;;;;;5035508;28;20095;-69
2023/03/05 12:44:07;;;;;;;6.55;1.08;;;;;;;;;;5051790;28;20044;-69
2023/03/05 12:46:37;;;;;;;5.28;0.80;;;;;;;;;;5035484;28;20055;-69
2023/03/05 12:49:27;;;;;;;5.45;0.98;;;;;;;;;;5051980;28;20045;-69
2023/03/05 12:51:59;;;;;;;8.82;1.20;;;;;;;;;;5051601;28;20063;-69
2023/03/05 12:54:33;;;;;;;2.90;0.88;;;;;;;;;;5052083;28;20063;-69
2023/03/05 12:57:00;;;;;;;5.78;1.00;;;;;;;;;;5051753;28;20355;-69
2023/03/05 12:59:38;;;;;;;3.97;1.00;;;;;;;;;;5051238;28;20052;-69
2023/03/05 13:02:12;;;;;;;6.22;0.82;;;;;;;;;;5051582;28;20154;-69
2023/03/05 13:04:40;;;;;;;6.38;0.85;;;;;;;;;;5052047;28;20047;-69
2023/03/05 13:07:13;;;;;;;1.30;0.50;;;;;;;;;;5051069;28;20403;-69
2023/03/05 13:09:39;;;;;;;5.60;0.90;;;;;;;;;;5051561;28;20049;-69
2023/03/05 13:12:12;;;;;;;4.65;0.73;;;;;;;;;;5051903;28;20052;-69
2023/03/05 13:14:42;;;;;;;3.70;0.60;;;;;;;;;;5050988;28;20041;-69
2023/03/05 13:17:28;;;;;;;7.32;1.30;;;;;;;;;;5051770;28;20045;-69
2023/03/05 13:19:54;;;;;;;4.80;1.17;;;;;;;;;;5050982;28;20045;-69
2023/03/05 13:22:23;;;;;;;3.67;0.70;;;;;;;;;;5051212;28;20096;-69
2023/03/05 13:24:49;;;;;;;5.20;1.08;;;;;;;;;;5069739;28;20453;-69
2023/03/05 13:27:34;;;;;;;7.70;1.67;;;;;;;;;;5050894;28;20098;-69
2023/03/05 13:30:00;;;;;;;2.85;1.05;;;;;;;;;;5051323;28;20151;-69
2023/03/05 13:32:28;;;;;;;7.03;0.90;;;;;;;;;;5052449;28;20053;-69
2023/03/05 13:34:58;;;;;;;8.82;1.00;;;;;;;;;;5050783;28;20041;-69
2023/03/05 13:37:25;;;;;;;5.35;1.35;;;;;;;;;;5051106;28;20044;-69
2023/03/05 13:39:54;;;;;;;4.70;1.08;;;;;;;;;;5051232;28;20495;-69
2023/03/05 13:42:25;;;;;;;8.20;0.90;;;;;;;;;;5050293;28;20044;-69
2023/03/05 13:44:58;;;;;;;9.30;1.10;;;;;;;;;;5051164;28;20041;-69
2023/03/05 13:47:29;;;;;;;3.83;0.95;;;;;;;;;;5052504;28;20040;-69
2023/03/05 13:50:00;;;;;;;4.47;0.90;;;;;;;;;;5050378;28;20059;-69
2023/03/05 13:52:28;;;;;;;5.80;0.90;;;;;;;;;;5050974;28;20044;-69
2023/03/05 13:54:54;;;;;;;2.58;1.52;;;;;;;;;;5050785;28;20041;-69
2023/03/05 13:57:35;;;;;;;3.75;0.75;;;;;;;;;;5050102;28;20053;-69
2023/03/05 14:00:01;;;;;;;5.93;0.90;;;;;;;;;;5034052;28;20036;-69
2023/03/05 14:02:28;;;;;;;4.85;0.82;;;;;;;;;;5050762;28;20037;-69
2023/03/05 14:04:54;;;;;;;3.78;0.90;;;;;;;;;;5050035;28;20048;-69
2023/03/05 14:07:27;;;;;;;3.05;1.15;;;;;;;;;;5050629;28;20687;-69
2023/03/05 14:09:55;;;;;;;5.05;0.90;;;;;;;;;;5050805;28;20414;-69
2023/03/05 14:12:30;;;;;;;5.45;0.90;;;;;;;;;;5050177;28;20537;-69
2023/03/05 14:14:57;;;;;;;3.83;0.70;;;;;;;;;;5050819;28;20463;-69
2023/03/05 14:17:31;;;;;;;3.28;0.70;;;;;;;;;;5050350;28;20048;-69
2023/03/05 14:20:12;;;;;;;4.75;0.77;;;;;;;;;;5049993;28;20056;-69
2023/03/05 14:22:43;;;;;;;5.13;0.90;;;;;;;;;;5050735;28;20080;-69
2023/03/05 14:25:26;;;;;;;3.33;0.80;;;;;;;;;;5067722;28;20529;-69
2023/03/05 14:27:52;;;;;;;5.97;0.80;;;;;;;;;;5033044;28;20044;-69
2023/03/05 14:30:23;;;;;;;7.90;1.00;;;;;;;;;;5050449;28;20115;-69
2023/03/05 14:32:50;;;;;;;5.60;1.00;;;;;;;;;;5050196;28;20132;-69
2023/03/05 14:35:17;;;;;;;4.60;0.93;;;;;;;;;;5049349;28;20039;-69
2023/03/05 14:37:47;;;;;;;3.65;1.10;;;;;;;;;;5033261;28;20488;-69
2023/03/05 14:40:13;;;;;;;5.65;1.02;;;;;;;;;;5050151;28;20574;-69
2023/03/05 14:42:42;;;;;;;5.47;1.00;;;;;;;;;;5049417;28;20124;-69
2023/03/05 14:45:19;;;;;;;6.43;0.80;;;;;;;;;;5050215;28;20036;-69
2023/03/05 14:47:46;;;;;;;3.42;1.00;;;;;;;;;;5050190;28;20604;-69
2023/03/05 14:50:16;;;;;;;3.63;0.88;;;;;;;;;;5049373;28;20037;-69
2023/03/05 14:52:42;;;;;;;3.58;1.20;;;;;;;;;;5049779;28;20049;-69